Kezdőlap
METAR-TAF:

METAR-TAF

Repülőterek :

Flying Cloud Airport

Minneapolis-Eden Prairie, Minnesota, Amerikai Egyesült Államok

földrajzi szélesség: 44-49-56N, földrajzi hosszúság: 093-28-13W, magasság: 287 m

Jelenlegi meteorológiai megfigyelések

A jelentés 18 perccel ezelõtt készült, 01:53 UTC
Szélcsend
Hőmérséklet 15°C
Páratartalom 44%
Légköri nyomás 1015 hPa
Látótávolság: 16.1 km
Derült ég

METAR: KFCM 240153Z 00000KT 10SM CLR 15/03 A2998 RMK AO2 SLP157 T01500028

Idő: 21:11 (02:11 UTC)


TAF: hiányzik

Meteorológiai megfigyelések és előrejelzések több, mint 4000 repülőtéren (METAR és TAF jelentéseket).

A térképen piros és sárga pontok jelzik az elérhető meteorológiai állomásokat.

Mozgassa az egeret a pont fölött, hogy megjelenjen az állomás neve.

Azután kattintson az időjárási megfigyelések és előrejelzések megtekintéséhez.

A térkép megváltoztatása: kattintson a fekete keresztel jelölt zöld gombra ráközelítéshez, a vonallal jelölt zöld gombra távolításhoz, vagy a zöld nyilakra a szomszédos térképek eléréséhez.


METAR-TAF: